Time;durP1;ratioP1;P1;durP2;ratioP2;P2;SDS_P1;SDS_P2;PMS_P1;PMS_P2;Temp;Humidity;BMP_temperature;BMP_pressure;BME280_temperature;BME280_humidity;BME280_pressure;Samples;Min_cycle;Max_cycle;Signal;HPM_P1;HPM_P2
2024/01/29 00:01:57;;;;;;;34.80;17.00;;;;;;;2.17;85.34;100956.89;82174;1293;3018774;-68
2024/01/29 00:04:24;;;;;;;29.40;12.90;;;;;;;2.14;85.62;100962.08;82129;1293;3011287;-70
2024/01/29 00:06:52;;;;;;;31.70;15.60;;;;;;;2.50;84.75;100967.67;80851;1294;3026750;-70
2024/01/29 00:09:19;;;;;;;31.90;15.40;;;;;;;3.09;82.92;100962.56;82104;1293;3012550;-71
2024/01/29 00:11:46;;;;;;;29.90;15.40;;;;;;;3.38;82.20;100960.48;82130;1294;3011183;-67
2024/01/29 00:14:13;;;;;;;30.20;14.90;;;;;;;3.29;81.47;100962.61;80863;1296;3025948;-71
2024/01/29 00:16:40;;;;;;;30.90;16.30;;;;;;;3.08;81.69;100956.34;82114;1295;3013137;-70
2024/01/29 00:19:07;;;;;;;36.50;17.00;;;;;;;2.99;82.19;100956.22;82126;1294;3011398;-71
2024/01/29 00:21:34;;;;;;;37.20;17.00;;;;;;;2.92;82.44;100959.73;80838;1295;3026573;-69
2024/01/29 00:24:01;;;;;;;36.60;16.50;;;;;;;2.79;82.52;100971.90;82108;1295;3018090;-67
2024/01/29 00:26:28;;;;;;;40.00;17.90;;;;;;;2.68;82.73;100972.11;82116;1295;3011371;-67
2024/01/29 00:28:56;;;;;;;35.60;16.80;;;;;;;2.71;83.10;100977.12;80885;1294;3026504;-66
2024/01/29 00:31:23;;;;;;;35.60;16.70;;;;;;;2.66;83.17;100972.99;82166;1294;3018998;-70
2024/01/29 00:33:51;;;;;;;39.70;18.80;;;;;;;2.59;83.10;100972.66;82132;1294;3011569;-68
2024/01/29 00:36:19;;;;;;;34.80;16.30;;;;;;;2.48;83.27;100973.58;80862;1294;3053063;-67
2024/01/29 00:38:46;;;;;;;36.70;17.10;;;;;;;2.36;83.95;100972.57;82121;1295;3012430;-68
2024/01/29 00:41:13;;;;;;;32.70;16.50;;;;;;;2.34;84.28;100971.88;82098;1295;3011460;-68
2024/01/29 00:43:42;;;;;;;28.80;12.50;;;;;;;2.36;84.06;100972.56;80839;1293;3027608;-69
2024/01/29 00:46:09;;;;;;;29.90;13.70;;;;;;;2.95;83.15;100971.64;82141;1295;3012700;-67
2024/01/29 00:48:35;;;;;;;39.50;16.00;;;;;;;3.58;81.18;100975.56;82096;1295;3011261;-67
2024/01/29 00:51:03;;;;;;;28.30;15.20;;;;;;;3.36;80.38;100981.63;80844;1294;3052765;-64
2024/01/29 00:53:30;;;;;;;34.20;16.30;;;;;;;3.42;80.62;100982.80;82101;1295;3013303;-67
2024/01/29 00:55:57;;;;;;;32.90;16.20;;;;;;;3.28;80.65;100987.39;82147;1294;3011497;-66
2024/01/29 00:58:25;;;;;;;28.70;14.30;;;;;;;3.22;80.87;100986.57;80833;1294;3068112;-66
2024/01/29 01:00:52;;;;;;;30.30;15.20;;;;;;;3.07;80.99;100990.45;82159;1294;3018752;-65
2024/01/29 01:03:18;;;;;;;30.90;15.70;;;;;;;2.97;81.30;100992.94;82124;1294;3011193;-70
2024/01/29 01:05:46;;;;;;;30.90;15.30;;;;;;;2.68;81.67;101001.36;80739;1298;3026594;-67
2024/01/29 01:08:14;;;;;;;27.90;14.10;;;;;;;2.56;82.67;100999.14;82102;1298;3012973;-67
2024/01/29 01:10:42;;;;;;;31.20;15.10;;;;;;;2.54;82.85;101001.39;82149;1295;3011312;-65
2024/01/29 01:13:10;;;;;;;30.90;14.60;;;;;;;2.32;83.64;101003.02;80862;1294;3069365;-67
2024/01/29 01:15:36;;;;;;;28.40;13.40;;;;;;;2.36;83.99;101003.00;82120;1295;3018204;-69
2024/01/29 01:18:03;;;;;;;31.20;13.70;;;;;;;2.25;84.06;101005.96;81950;1294;3011533;-69
2024/01/29 01:20:31;;;;;;;27.20;13.00;;;;;;;2.26;84.26;101005.80;80852;1294;3026736;-71
2024/01/29 01:23:00;;;;;;;23.40;12.50;;;;;;;2.25;84.45;101011.85;82112;1293;3012736;-71
2024/01/29 01:25:26;;;;;;;28.00;12.40;;;;;;;2.31;83.87;101010.27;82100;1295;3011369;-70
2024/01/29 01:27:55;;;;;;;20.40;9.30;;;;;;;2.26;83.64;101012.02;80834;1295;3068572;-73
2024/01/29 01:30:22;;;;;;;21.30;10.40;;;;;;;2.63;82.92;101012.44;82136;1295;3013177;-73
2024/01/29 01:32:49;;;;;;;20.20;10.50;;;;;;;3.19;81.36;101013.58;82091;1294;3011265;-69
2024/01/29 01:35:17;;;;;;;23.80;10.30;;;;;;;3.51;80.76;101010.09;80825;1295;3051173;-68
2024/01/29 01:37:44;;;;;;;20.30;10.50;;;;;;;3.46;80.11;101011.34;82135;1295;3012736;-69
2024/01/29 01:40:11;;;;;;;20.70;11.20;;;;;;;3.43;80.38;101012.23;82130;1298;3011406;-68
2024/01/29 01:42:41;;;;;;;23.20;12.00;;;;;;;3.24;80.18;101014.25;80825;1295;3025969;-71
2024/01/29 01:45:08;;;;;;;16.30;8.90;;;;;;;3.05;80.52;101023.00;82098;1295;3011161;-68
2024/01/29 01:47:38;;;;;;;14.70;8.50;;;;;;;2.92;80.56;101021.17;82143;1297;3011239;-68
2024/01/29 01:50:08;;;;;;;15.30;8.20;;;;;;;2.78;81.08;101022.94;80836;1294;3053347;-71
2024/01/29 01:52:35;;;;;;;13.00;7.40;;;;;;;2.65;81.07;101026.97;82123;1295;3012427;-72
2024/01/29 01:55:02;;;;;;;13.10;7.10;;;;;;;2.62;81.53;101024.73;82129;1295;3011446;-72
2024/01/29 01:57:30;;;;;;;9.10;6.00;;;;;;;2.60;81.35;101031.15;80870;1294;3068472;-69
2024/01/29 02:00:00;;;;;;;10.60;6.10;;;;;;;2.38;81.83;101028.60;82113;1294;3013214;-68
2024/01/29 02:02:29;;;;;;;10.40;6.30;;;;;;;2.33;82.34;101036.38;81551;1295;3011384;-70
2024/01/29 02:04:55;;;;;;;9.00;6.20;;;;;;;2.26;82.71;101035.36;82122;1295;3018432;-70
2024/01/29 02:07:23;;;;;;;9.10;5.70;;;;;;;2.12;83.12;101034.52;82077;1294;3011236;-72
2024/01/29 02:09:51;;;;;;;9.20;5.50;;;;;;;2.14;83.03;101036.41;80853;1295;3052920;-71
2024/01/29 02:12:19;;;;;;;7.80;5.50;;;;;;;2.07;83.34;101042.64;82132;1295;3018748;-71
2024/01/29 02:14:50;;;;;;;6.00;4.40;;;;;;;2.10;83.31;101042.98;82122;1295;3011338;-72
2024/01/29 02:17:18;;;;;;;7.90;4.40;;;;;;;1.99;83.42;101045.39;80865;1298;3056431;-71
2024/01/29 02:19:44;;;;;;;6.40;4.30;;;;;;;2.53;83.12;101052.25;82135;1294;3012974;-68
2024/01/29 02:22:12;;;;;;;7.10;4.30;;;;;;;3.29;80.84;101053.71;82019;1294;3011296;-69
2024/01/29 02:24:40;;;;;;;7.20;4.40;;;;;;;3.51;79.96;101054.81;80840;1295;3050766;-70
2024/01/29 02:27:07;;;;;;;4.90;3.50;;;;;;;3.28;78.80;101061.33;82121;1295;3013104;-67
2024/01/29 02:29:34;;;;;;;5.60;4.20;;;;;;;3.13;79.05;101059.50;82101;1295;3011248;-69
2024/01/29 02:32:03;;;;;;;5.40;3.90;;;;;;;3.01;79.56;101068.38;80863;1294;3055424;-67
2024/01/29 02:34:29;;;;;;;5.90;4.00;;;;;;;2.94;79.65;101062.52;82104;1296;3012643;-68
2024/01/29 02:36:57;;;;;;;5.30;4.10;;;;;;;2.87;79.56;101070.33;82099;1294;3011086;-67
2024/01/29 02:39:25;;;;;;;5.50;3.80;;;;;;;2.78;79.55;101069.85;80829;1295;3026492;-69
2024/01/29 02:41:52;;;;;;;7.10;3.80;;;;;;;2.66;79.42;101074.55;82134;1296;3012714;-66
2024/01/29 02:44:19;;;;;;;5.70;3.90;;;;;;;2.54;79.69;101075.27;82126;1293;3011372;-66
2024/01/29 02:46:47;;;;;;;5.50;4.10;;;;;;;2.43;80.25;101076.49;80810;1298;3056341;-69
2024/01/29 02:49:13;;;;;;;8.20;4.10;;;;;;;2.43;80.48;101079.27;82134;1298;3013014;-69
2024/01/29 02:51:40;;;;;;;7.50;4.40;;;;;;;2.32;80.58;101081.17;82121;1295;3011040;-64
2024/01/29 02:54:08;;;;;;;6.40;3.90;;;;;;;2.35;80.77;101078.59;80833;1298;3026161;-67
2024/01/29 02:56:35;;;;;;;6.00;4.20;;;;;;;2.30;80.86;101075.82;82157;1295;3012643;-68
2024/01/29 02:59:02;;;;;;;6.30;4.50;;;;;;;2.29;80.73;101075.98;82106;1294;3011349;-67
2024/01/29 03:01:30;;;;;;;7.70;4.70;;;;;;;2.34;80.31;101079.63;80829;1295;3055826;-68
2024/01/29 03:03:57;;;;;;;5.30;3.80;;;;;;;2.27;80.08;101085.67;82135;1294;3018199;-66
2024/01/29 03:06:23;;;;;;;6.40;4.40;;;;;;;2.15;80.46;101088.61;82119;1295;3011217;-66
2024/01/29 03:08:52;;;;;;;5.80;4.10;;;;;;;2.07;80.92;101094.67;80825;1296;3026134;-66
2024/01/29 03:11:18;;;;;;;6.80;4.00;;;;;;;1.99;81.45;101095.34;82160;1294;3012760;-64
2024/01/29 03:13:47;;;;;;;6.30;4.30;;;;;;;1.94;81.64;101091.55;82114;1295;3011242;-67
2024/01/29 03:16:15;;;;;;;7.20;4.20;;;;;;;1.96;81.98;101097.95;80840;1295;3056500;-67
2024/01/29 03:18:41;;;;;;;6.10;3.50;;;;;;;2.03;81.57;101102.80;82134;1295;3018731;-65
2024/01/29 03:21:08;;;;;;;5.50;4.10;;;;;;;2.07;81.32;101105.38;82103;1295;3011354;-66
2024/01/29 03:23:36;;;;;;;5.80;3.80;;;;;;;2.11;81.11;101107.29;80846;1298;3026467;-66
2024/01/29 03:26:03;;;;;;;6.00;4.30;;;;;;;2.05;80.83;101105.04;82158;1295;3011282;-66
2024/01/29 03:28:30;;;;;;;5.30;3.30;;;;;;;2.02;80.93;101106.77;82124;1295;3011457;-65
2024/01/29 03:30:58;;;;;;;4.70;3.40;;;;;;;2.44;79.84;101109.70;80850;1294;3056527;-66
2024/01/29 03:33:24;;;;;;;4.60;2.80;;;;;;;3.21;78.07;101117.48;82137;1295;3018406;-64
2024/01/29 03:35:51;;;;;;;4.00;2.90;;;;;;;3.47;76.79;101114.25;82094;1295;3011451;-69
2024/01/29 03:38:19;;;;;;;4.40;3.20;;;;;;;3.25;75.47;101118.33;80837;1298;3026380;-67
2024/01/29 03:40:46;;;;;;;3.60;2.90;;;;;;;3.07;75.56;101123.42;82137;1295;3018039;-67
2024/01/29 03:43:13;;;;;;;4.00;3.20;;;;;;;2.85;76.02;101125.20;82151;1295;3011522;-65
2024/01/29 03:45:41;;;;;;;4.10;2.90;;;;;;;2.65;76.17;101128.53;80848;1295;3055285;-66
2024/01/29 03:48:07;;;;;;;4.00;2.80;;;;;;;2.56;76.24;101132.17;82118;1294;3018414;-65
2024/01/29 03:50:34;;;;;;;3.50;2.60;;;;;;;2.46;75.79;101136.34;82033;1295;3011211;-67
2024/01/29 03:53:03;;;;;;;2.80;2.30;;;;;;;2.32;75.32;101143.60;80888;1295;3051805;-62
2024/01/29 03:55:29;;;;;;;4.50;2.80;;;;;;;2.23;75.69;101146.20;82159;1295;3018233;-67
2024/01/29 03:57:56;;;;;;;3.20;2.60;;;;;;;2.18;75.99;101151.72;82119;1295;3011284;-64
2024/01/29 04:00:26;;;;;;;3.30;2.40;;;;;;;2.27;76.29;101152.77;80852;1295;3026215;-65
2024/01/29 04:02:52;;;;;;;4.10;2.80;;;;;;;2.30;76.24;101152.08;82120;1295;3011244;-66
2024/01/29 04:05:19;;;;;;;4.00;2.90;;;;;;;2.17;76.31;101153.98;82141;1295;3011257;-65
2024/01/29 04:07:48;;;;;;;4.10;2.70;;;;;;;2.13;76.55;101154.66;80855;1295;3052810;-69
2024/01/29 04:10:15;;;;;;;4.00;2.50;;;;;;;2.15;76.90;101156.73;82138;1295;3012761;-68
2024/01/29 04:12:42;;;;;;;4.70;2.90;;;;;;;2.17;76.66;101155.69;82105;1294;3011392;-64
2024/01/29 04:15:10;;;;;;;4.10;2.90;;;;;;;2.02;76.66;101152.91;80850;1295;3056164;-67
2024/01/29 04:17:37;;;;;;;3.90;2.90;;;;;;;1.98;77.21;101158.09;82124;1295;3013751;-67
2024/01/29 04:20:05;;;;;;;4.20;2.90;;;;;;;2.00;77.32;101161.38;82104;1295;3011280;-65
2024/01/29 04:22:33;;;;;;;4.40;2.80;;;;;;;1.98;77.30;101166.22;80849;1298;3052148;-68
2024/01/29 04:25:02;;;;;;;4.70;3.30;;;;;;;2.02;77.42;101172.61;82161;1294;3012660;-70
2024/01/29 04:27:29;;;;;;;5.70;3.30;;;;;;;1.98;77.79;101175.73;82083;1296;3011229;-68
2024/01/29 04:29:56;;;;;;;3.70;2.50;;;;;;;1.96;77.75;101177.79;80836;1295;3056823;-66
2024/01/29 04:32:23;;;;;;;3.70;2.70;;;;;;;1.95;77.95;101177.97;82123;1293;3012678;-68
2024/01/29 04:34:50;;;;;;;3.60;2.70;;;;;;;2.01;77.77;101180.40;82111;1295;3011345;-68
2024/01/29 04:37:17;;;;;;;3.40;2.70;;;;;;;1.97;77.28;101181.77;80843;1298;3025683;-67
2024/01/29 04:39:44;;;;;;;3.40;2.60;;;;;;;1.93;77.12;101188.50;82138;1294;3012533;-66
2024/01/29 04:42:12;;;;;;;4.10;2.90;;;;;;;1.95;77.06;101189.02;82106;1295;3011074;-68
2024/01/29 04:44:40;;;;;;;4.70;2.60;;;;;;;1.81;77.08;101194.69;80860;1295;3054596;-69
2024/01/29 04:47:06;;;;;;;4.00;2.60;;;;;;;1.74;77.41;101198.30;82154;1295;3018167;-68
2024/01/29 04:49:33;;;;;;;3.20;2.50;;;;;;;1.83;77.71;101201.27;82108;1298;3011303;-68
2024/01/29 04:52:01;;;;;;;4.20;2.70;;;;;;;1.88;77.42;101198.87;80885;1295;3024494;-66
2024/01/29 04:54:27;;;;;;;4.10;3.00;;;;;;;1.79;77.21;101204.72;82149;1295;3012847;-68
2024/01/29 04:56:54;;;;;;;3.70;2.80;;;;;;;1.68;77.49;101204.15;82094;1298;3011318;-70
2024/01/29 04:59:22;;;;;;;4.10;2.70;;;;;;;1.75;77.62;101210.40;80886;1294;3027013;-68
2024/01/29 05:01:48;;;;;;;3.80;2.40;;;;;;;1.77;77.30;101216.45;82134;1295;3011421;-67
2024/01/29 05:04:15;;;;;;;4.10;3.10;;;;;;;1.77;77.30;101225.79;82090;1294;3011061;-67
2024/01/29 05:06:43;;;;;;;4.10;2.80;;;;;;;1.78;77.33;101229.42;80854;1298;3026123;-67
2024/01/29 05:09:11;;;;;;;4.20;2.80;;;;;;;1.80;77.56;101235.13;82162;1295;3018016;-68
2024/01/29 05:11:39;;;;;;;5.00;3.30;;;;;;;1.84;77.54;101237.38;82118;1296;3011344;-67
2024/01/29 05:14:08;;;;;;;3.80;2.90;;;;;;;1.78;77.66;101241.67;80831;1295;3056293;-65
2024/01/29 05:16:35;;;;;;;5.80;3.60;;;;;;;1.82;77.81;101243.77;82146;1295;3011633;-73
2024/01/29 05:19:02;;;;;;;5.90;3.50;;;;;;;1.81;77.84;101246.01;82127;1294;3011343;-71
2024/01/29 05:21:30;;;;;;;5.60;3.40;;;;;;;1.89;77.88;101245.52;80823;1298;3051336;-68
2024/01/29 05:23:57;;;;;;;6.40;4.30;;;;;;;1.89;77.90;101251.40;82121;1295;3018449;-67
2024/01/29 05:26:23;;;;;;;7.40;4.80;;;;;;;1.88;78.10;101256.58;82129;1295;3011215;-68
2024/01/29 05:28:51;;;;;;;5.80;4.20;;;;;;;1.75;78.19;101260.15;80829;1294;3026575;-70
2024/01/29 05:31:18;;;;;;;5.90;3.50;;;;;;;1.69;78.66;101267.39;82122;1298;3012657;-70
2024/01/29 05:33:44;;;;;;;7.20;4.20;;;;;;;1.73;79.15;101270.85;82092;1295;3011310;-68
2024/01/29 05:36:13;;;;;;;6.00;3.80;;;;;;;1.73;79.21;101272.77;80833;1295;3026938;-68
2024/01/29 05:38:40;;;;;;;5.60;3.80;;;;;;;1.83;79.32;101275.73;82135;1298;3013758;-66
2024/01/29 05:41:06;;;;;;;6.70;3.70;;;;;;;1.92;79.12;101275.60;82089;1295;3011493;-68
2024/01/29 05:43:34;;;;;;;7.10;4.10;;;;;;;1.92;78.80;101281.14;80858;1295;3056999;-68
2024/01/29 05:46:01;;;;;;;7.10;3.80;;;;;;;1.90;78.99;101284.74;82130;1298;3013110;-66
2024/01/29 05:48:27;;;;;;;6.90;4.10;;;;;;;1.89;78.92;101288.38;82128;1294;3011443;-67
2024/01/29 05:50:55;;;;;;;6.50;3.70;;;;;;;1.98;79.21;101294.11;80874;1298;3025051;-65
2024/01/29 05:53:23;;;;;;;5.20;4.00;;;;;;;1.97;79.29;101294.28;82136;1296;3013277;-66
2024/01/29 05:55:50;;;;;;;6.50;4.00;;;;;;;2.04;79.48;101299.84;82108;1298;3011261;-67
2024/01/29 05:58:17;;;;;;;6.20;4.20;;;;;;;2.02;79.20;101306.23;80880;1296;3056449;-65
2024/01/29 06:00:44;;;;;;;10.40;5.60;;;;;;;2.08;79.41;101300.73;82114;1295;3013265;-66
2024/01/29 06:03:12;;;;;;;10.50;6.00;;;;;;;2.00;79.10;101307.27;82086;1296;3011650;-66
2024/01/29 06:05:39;;;;;;;13.00;7.00;;;;;;;2.17;79.22;101308.72;80860;1298;3050720;-67
2024/01/29 06:08:06;;;;;;;11.90;7.20;;;;;;;2.21;78.63;101309.24;82155;1295;3012652;-67
2024/01/29 06:10:33;;;;;;;12.60;6.30;;;;;;;2.27;78.71;101310.30;82102;1298;3011290;-67
2024/01/29 06:13:01;;;;;;;11.70;5.90;;;;;;;2.25;78.37;101309.60;80855;1294;3026251;-66
2024/01/29 06:15:27;;;;;;;9.90;5.80;;;;;;;2.24;78.29;101310.98;82125;1295;3018522;-65
2024/01/29 06:17:54;;;;;;;12.60;6.80;;;;;;;2.21;78.59;101309.58;82113;1295;3011061;-66
2024/01/29 06:20:22;;;;;;;11.70;6.10;;;;;;;2.26;78.84;101315.82;80866;1298;3025033;-66
2024/01/29 06:22:48;;;;;;;8.80;5.20;;;;;;;2.34;78.45;101312.74;82143;1295;3018497;-70
2024/01/29 06:25:19;;;;;;;8.90;5.70;;;;;;;2.36;77.98;101311.02;82083;1298;3011271;-68
2024/01/29 06:27:47;;;;;;;8.20;4.70;;;;;;;2.47;78.26;101316.58;80883;1295;3055337;-67
2024/01/29 06:30:14;;;;;;;7.50;4.80;;;;;;;2.43;77.31;101314.66;82103;1296;3012580;-67
2024/01/29 06:32:41;;;;;;;7.00;4.80;;;;;;;2.47;77.30;101325.58;82121;1294;3011258;-69
2024/01/29 06:35:10;;;;;;;9.70;5.50;;;;;;;2.50;77.40;101326.09;80884;1295;3053792;-64
2024/01/29 06:37:36;;;;;;;8.40;4.90;;;;;;;2.47;77.37;101328.34;82163;1296;3013819;-68
2024/01/29 06:40:05;;;;;;;8.30;4.70;;;;;;;2.44;77.36;101333.00;82088;1298;3011305;-70
2024/01/29 06:42:34;;;;;;;9.40;5.70;;;;;;;2.48;77.24;101335.60;80883;1294;3054649;-72
2024/01/29 06:45:00;;;;;;;9.80;6.00;;;;;;;2.52;77.32;101340.61;82136;1295;3012272;-72
2024/01/29 06:47:27;;;;;;;11.60;5.80;;;;;;;2.60;76.97;101341.69;82100;1295;3011325;-66
2024/01/29 06:49:58;;;;;;;8.70;5.70;;;;;;;2.56;76.75;101341.67;80848;1298;3052770;-68
2024/01/29 06:52:25;;;;;;;9.60;6.40;;;;;;;2.49;76.95;101344.61;82119;1295;3012622;-68
2024/01/29 06:54:52;;;;;;;8.60;5.90;;;;;;;2.53;77.19;101341.16;82095;1298;3011199;-68
2024/01/29 06:57:20;;;;;;;7.80;5.50;;;;;;;2.65;77.13;101346.37;80867;1296;3056475;-70
2024/01/29 06:59:47;;;;;;;7.70;5.20;;;;;;;2.70;76.78;101344.65;82115;1294;3017916;-69
2024/01/29 07:02:13;;;;;;;11.70;5.60;;;;;;;2.58;76.49;101353.10;82092;1294;3011432;-67
2024/01/29 07:04:42;;;;;;;10.70;6.50;;;;;;;2.56;76.91;101353.27;80838;1295;3024926;-68
2024/01/29 07:07:09;;;;;;;10.00;5.90;;;;;;;2.60;76.88;101356.06;82083;1295;3011647;-66
2024/01/29 07:09:36;;;;;;;8.60;6.10;;;;;;;2.71;76.95;101360.23;82122;1295;3011396;-70
2024/01/29 07:12:05;;;;;;;7.40;5.10;;;;;;;2.67;76.45;101360.56;80875;1294;3055933;-67
2024/01/29 07:14:32;;;;;;;8.30;4.90;;;;;;;2.76;76.53;101359.89;82072;1295;3012271;-69
2024/01/29 07:16:58;;;;;;;10.20;4.90;;;;;;;2.70;76.24;101361.79;82207;1295;3011678;-68
2024/01/29 07:19:32;;;;;;;7.20;4.80;;;;;;;2.62;76.37;101364.52;80827;1295;3051786;-67
2024/01/29 07:22:04;;;;;;;7.10;5.10;;;;;;;2.65;77.02;101361.42;82106;1294;3011268;-68
2024/01/29 07:24:32;;;;;;;8.80;5.00;;;;;;;2.71;76.57;101363.16;80857;1294;3070246;-68
2024/01/29 07:26:59;;;;;;;8.60;5.30;;;;;;;2.73;76.50;101361.10;82125;1295;3011213;-68
2024/01/29 07:29:26;;;;;;;9.70;5.90;;;;;;;2.72;76.32;101368.02;82133;1295;3011334;-67
2024/01/29 07:31:54;;;;;;;8.10;5.60;;;;;;;2.83;76.46;101368.73;80833;1294;3051848;-67
2024/01/29 07:34:22;;;;;;;8.90;5.40;;;;;;;2.87;75.96;101367.88;82120;1298;3012557;-70
2024/01/29 07:36:48;;;;;;;9.80;6.30;;;;;;;2.80;75.73;101370.98;82107;1298;3011203;-69
2024/01/29 07:39:16;;;;;;;9.90;6.50;;;;;;;2.82;76.23;101372.02;80864;1294;3026565;-71
2024/01/29 07:41:43;;;;;;;8.50;5.40;;;;;;;2.93;76.24;101371.52;82147;1294;3013228;-69
2024/01/29 07:44:09;;;;;;;10.60;7.10;;;;;;;3.02;75.85;101377.94;82137;1294;3011254;-69
2024/01/29 07:46:37;;;;;;;10.20;6.90;;;;;;;3.04;75.29;101378.11;80808;1295;3025777;-68
2024/01/29 07:49:04;;;;;;;10.30;6.60;;;;;;;2.97;75.02;101372.39;82111;1298;3013170;-67
2024/01/29 07:51:31;;;;;;;10.20;6.80;;;;;;;3.07;75.29;101376.90;82115;1295;3011388;-66
2024/01/29 07:53:59;;;;;;;11.10;6.80;;;;;;;2.98;74.64;101378.27;80855;1295;3026806;-65
2024/01/29 07:56:26;;;;;;;11.90;6.40;;;;;;;3.01;75.11;101382.95;82178;1295;3013354;-67
2024/01/29 07:58:52;;;;;;;12.10;6.50;;;;;;;3.07;75.13;101386.42;82121;1295;3011446;-67
2024/01/29 08:01:20;;;;;;;10.00;6.50;;;;;;;3.15;74.68;101385.23;80866;1294;3025943;-67
2024/01/29 08:03:47;;;;;;;10.40;6.10;;;;;;;3.06;74.30;101386.08;82118;1295;3012878;-70
2024/01/29 08:06:13;;;;;;;8.80;5.90;;;;;;;3.14;74.74;101385.91;82093;1294;3011352;-70
2024/01/29 08:08:41;;;;;;;11.80;6.20;;;;;;;3.19;74.29;101389.72;80845;1294;3025731;-67
2024/01/29 08:11:08;;;;;;;8.90;5.50;;;;;;;3.14;74.33;101391.10;82094;1295;3018011;-69
2024/01/29 08:13:35;;;;;;;10.00;5.80;;;;;;;3.14;74.24;101393.35;82060;1295;3011589;-69
2024/01/29 08:16:03;;;;;;;9.50;6.10;;;;;;;3.07;74.63;101396.13;80840;1294;3053323;-69
2024/01/29 08:18:30;;;;;;;8.90;5.50;;;;;;;3.14;74.49;101400.27;82082;1295;3013346;-67
2024/01/29 08:20:57;;;;;;;11.60;6.60;;;;;;;3.19;74.56;101403.23;82113;1294;3011753;-68
2024/01/29 08:23:26;;;;;;;9.40;6.40;;;;;;;3.32;74.29;101400.81;80841;1295;3026485;-70
2024/01/29 08:25:53;;;;;;;9.70;6.10;;;;;;;3.46;73.64;101406.35;82127;1294;3011386;-72
2024/01/29 08:28:20;;;;;;;9.60;6.10;;;;;;;3.40;72.95;101414.49;82142;1294;3011613;-69
2024/01/29 08:30:48;;;;;;;10.10;6.40;;;;;;;3.44;72.93;101417.44;80822;1294;3052917;-71
2024/01/29 08:33:14;;;;;;;9.30;6.30;;;;;;;3.34;73.09;101418.13;82088;1298;3012720;-69
2024/01/29 08:35:41;;;;;;;11.30;6.30;;;;;;;3.41;72.67;101418.14;82137;1294;3011153;-65
2024/01/29 08:38:09;;;;;;;10.20;6.50;;;;;;;3.35;72.59;101424.71;80845;1294;3026118;-67
2024/01/29 08:40:37;;;;;;;10.50;6.10;;;;;;;3.48;72.22;101421.77;82129;1294;3012299;-70
2024/01/29 08:43:04;;;;;;;8.80;6.00;;;;;;;3.57;71.91;101421.77;82119;1295;3011349;-72
2024/01/29 08:45:31;;;;;;;10.70;6.40;;;;;;;3.55;71.65;101432.33;80824;1295;3051690;-72
2024/01/29 08:47:58;;;;;;;10.90;6.40;;;;;;;3.60;71.70;101443.27;82096;1295;3012290;-71
2024/01/29 08:50:26;;;;;;;10.50;6.70;;;;;;;3.62;72.28;101446.89;82086;1295;3011427;-68
2024/01/29 08:52:55;;;;;;;8.10;5.70;;;;;;;3.61;72.04;101445.33;80816;1297;3067958;-68
2024/01/29 08:55:22;;;;;;;10.00;6.00;;;;;;;3.54;72.06;101438.75;82111;1294;3012794;-70
2024/01/29 08:57:49;;;;;;;8.70;6.10;;;;;;;3.69;71.94;101442.39;82126;1294;3011424;-69
2024/01/29 09:00:17;;;;;;;9.50;6.40;;;;;;;3.66;71.66;101440.14;80871;1294;3051878;-69
2024/01/29 09:02:48;;;;;;;11.30;6.60;;;;;;;3.57;72.04;101440.14;82118;1294;3013173;-68
2024/01/29 09:05:16;;;;;;;11.20;6.80;;;;;;;3.56;72.30;101442.73;80830;1298;3052122;-70
2024/01/29 09:09:47;;;;;;;13.70;7.20;;;;;;;3.67;72.57;101436.67;80202;1301;3013340;-67
2024/01/29 09:12:13;;;;;;;16.00;7.10;;;;;;;3.84;72.13;101435.96;79340;1305;3013096;-69
2024/01/29 09:14:40;;;;;;;16.30;7.70;;;;;;;3.88;71.21;101440.98;79074;1306;3011777;-72
2024/01/29 09:17:08;;;;;;;9.90;6.60;;;;;;;3.93;70.72;101438.37;77862;1306;3026845;-68
2024/01/29 09:19:35;;;;;;;11.30;6.50;;;;;;;4.03;70.44;101440.43;79065;1306;3013639;-69
2024/01/29 09:22:01;;;;;;;11.00;6.50;;;;;;;4.15;69.91;101442.15;79075;1304;3012429;-68
2024/01/29 09:24:29;;;;;;;15.00;7.00;;;;;;;4.09;69.15;101442.67;78038;1299;3026789;-70
2024/01/29 09:26:56;;;;;;;9.30;6.50;;;;;;;4.09;68.64;101444.07;79401;1303;3019267;-66
2024/01/29 09:29:23;;;;;;;10.60;6.30;;;;;;;4.07;68.17;101444.58;79243;1304;3013446;-68
2024/01/29 09:31:51;;;;;;;10.00;6.30;;;;;;;4.12;68.33;101447.52;78136;1301;3026825;-68
2024/01/29 09:34:18;;;;;;;10.40;6.40;;;;;;;4.04;68.45;101445.99;79032;1301;3013147;-69
2024/01/29 09:36:45;;;;;;;13.20;6.80;;;;;;;3.95;68.76;101450.69;79543;1301;3011625;-69
2024/01/29 09:39:13;;;;;;;12.70;7.00;;;;;;;4.01;69.05;101451.55;78369;1304;3028500;-73
2024/01/29 09:41:39;;;;;;;13.50;7.30;;;;;;;3.92;69.41;101452.59;79403;1304;3012950;-68
2024/01/29 09:44:06;;;;;;;13.40;7.60;;;;;;;3.90;69.61;101457.63;79469;1302;3011521;-67
2024/01/29 09:46:37;;;;;;;12.60;7.10;;;;;;;4.04;69.67;101458.46;78235;1304;3028334;-70
2024/01/29 09:49:07;;;;;;;14.60;6.80;;;;;;;4.10;69.67;101462.44;79619;1299;3013356;-67
2024/01/29 09:51:35;;;;;;;11.20;6.80;;;;;;;4.22;69.36;101458.27;78362;1302;3051354;-66
2024/01/29 09:54:03;;;;;;;10.90;6.80;;;;;;;4.19;69.03;101458.61;79413;1298;3012985;-66
2024/01/29 09:56:30;;;;;;;11.90;6.40;;;;;;;4.07;69.28;101461.94;79397;1298;3011715;-70
2024/01/29 09:58:58;;;;;;;11.70;6.80;;;;;;;4.14;69.40;101456.89;78246;1303;3050864;-68
2024/01/29 10:01:25;;;;;;;10.70;6.40;;;;;;;4.05;69.20;101458.12;79471;1301;3012870;-70
2024/01/29 10:03:52;;;;;;;10.40;6.30;;;;;;;4.28;68.81;101458.77;79390;1299;3011657;-71
2024/01/29 10:06:20;;;;;;;11.90;6.90;;;;;;;4.36;67.61;101462.04;78578;1298;3026329;-67
2024/01/29 10:08:46;;;;;;;10.20;6.20;;;;;;;4.32;67.43;101458.75;79522;1302;3014152;-68
2024/01/29 10:11:13;;;;;;;10.40;5.80;;;;;;;4.41;67.24;101459.07;79257;1298;3012152;-68
2024/01/29 10:13:42;;;;;;;10.60;5.80;;;;;;;4.37;66.74;101458.21;78578;1301;3026221;-70
2024/01/29 10:16:09;;;;;;;10.40;5.80;;;;;;;4.33;67.17;101460.14;79466;1300;3012763;-66
2024/01/29 10:18:36;;;;;;;10.30;6.00;;;;;;;4.44;67.31;101455.06;79440;1300;3011746;-68
2024/01/29 10:21:05;;;;;;;11.60;7.20;;;;;;;4.40;67.05;101459.25;78212;1301;3050220;-69
2024/01/29 10:23:32;;;;;;;10.50;6.50;;;;;;;4.32;67.64;101451.46;79534;1297;3013665;-68
2024/01/29 10:25:59;;;;;;;11.10;6.70;;;;;;;4.38;67.27;101457.52;79392;1300;3011959;-66
2024/01/29 10:28:27;;;;;;;10.70;6.50;;;;;;;4.51;67.34;101459.73;78270;1301;3049851;-68
2024/01/29 10:30:55;;;;;;;9.50;5.60;;;;;;;4.46;66.58;101458.52;79486;1303;3013268;-70
2024/01/29 10:33:22;;;;;;;10.90;6.30;;;;;;;4.49;66.19;101456.96;79501;1301;3013565;-68
2024/01/29 10:35:50;;;;;;;10.30;6.20;;;;;;;4.58;66.01;101459.70;78178;1301;3050233;-69
2024/01/29 10:38:18;;;;;;;9.40;5.60;;;;;;;4.72;65.79;101459.80;79450;1297;3020555;-68
2024/01/29 10:40:45;;;;;;;10.30;6.10;;;;;;;4.78;64.89;101464.48;79511;1297;3011568;-66
2024/01/29 10:43:20;;;;;;;10.50;5.80;;;;;;;4.74;64.73;101461.54;78087;1304;3048648;-68
2024/01/29 10:45:51;;;;;;;8.20;5.10;;;;;;;4.73;64.64;101460.34;79322;1295;3011847;-66
2024/01/29 10:48:24;;;;;;;8.80;5.50;;;;;;;4.68;64.86;101459.66;79907;1300;3013307;-69
2024/01/29 10:50:52;;;;;;;11.00;6.50;;;;;;;4.58;65.29;101458.84;78488;1297;3051991;-71
2024/01/29 10:53:20;;;;;;;10.40;5.70;;;;;;;4.53;65.55;101465.61;79596;1298;3013929;-71
2024/01/29 10:55:51;;;;;;;10.70;6.00;;;;;;;4.42;65.52;101465.48;79543;1295;3011749;-68
2024/01/29 10:58:19;;;;;;;10.70;6.60;;;;;;;4.58;65.24;101460.56;78292;1295;3049491;-70
2024/01/29 11:00:46;;;;;;;8.80;5.60;;;;;;;4.71;65.20;101464.51;79421;1303;3014290;-70
2024/01/29 11:03:13;;;;;;;9.80;5.80;;;;;;;4.67;64.89;101467.13;79478;1298;3012654;-68
2024/01/29 11:05:53;;;;;;;9.40;5.30;;;;;;;4.57;64.71;101462.14;78340;1301;3051745;-69
2024/01/29 11:08:24;;;;;;;8.10;5.50;;;;;;;4.70;64.69;101463.65;78231;1300;3069341;-69
2024/01/29 11:10:51;;;;;;;8.60;5.00;;;;;;;4.72;64.47;101466.41;79487;1300;3011591;-71
2024/01/29 11:13:20;;;;;;;9.30;4.50;;;;;;;4.75;64.44;101462.41;79000;1295;3012841;-71
2024/01/29 11:15:47;;;;;;;11.30;5.00;;;;;;;4.73;63.50;101465.55;79462;1295;3013851;-70